Time;durP1;ratioP1;P1;durP2;ratioP2;P2;SDS_P1;SDS_P2;PMS_P1;PMS_P2;Temp;Humidity;BMP_temperature;BMP_pressure;BME280_temperature;BME280_humidity;BME280_pressure;Samples;Min_cycle;Max_cycle;Signal;HPM_P1;HPM_P2
2021/09/10 00:00:07;;;;;;;3.38;2.95;;;15.40;57.10;;;15.02;41.64;94942.56;5011816;28;20192;-79
2021/09/10 00:02:40;;;;;;;5.97;2.97;;;15.30;57.20;;;15.00;41.86;94952.56;4995990;28;20371;-79
2021/09/10 00:05:09;;;;;;;4.68;2.85;;;15.30;57.30;;;15.00;41.71;94957.00;4995608;28;20193;-79
2021/09/10 00:07:36;;;;;;;3.45;3.15;;;15.30;57.40;;;14.97;41.70;94949.53;5011918;28;20276;-78
2021/09/10 00:10:06;;;;;;;4.85;3.00;;;15.30;57.40;;;14.91;41.84;94942.50;5011568;28;20724;-79
2021/09/10 00:12:33;;;;;;;3.38;2.63;;;15.20;57.30;;;14.89;41.79;94950.59;4993619;28;20188;-77
2021/09/10 00:15:01;;;;;;;5.05;3.15;;;15.20;57.30;;;14.87;42.01;94950.03;5011406;28;20204;-78
2021/09/10 00:17:28;;;;;;;5.97;2.97;;;15.20;57.60;;;14.83;42.09;94948.84;5010897;28;20197;-78
2021/09/10 00:19:55;;;;;;;4.55;2.92;;;15.10;57.50;;;14.80;42.29;94949.28;5014443;28;20275;-78
2021/09/10 00:22:23;;;;;;;6.18;2.90;;;15.10;57.70;;;14.77;42.23;94955.81;5014724;28;20290;-79
2021/09/10 00:24:50;;;;;;;4.70;2.97;;;15.10;57.90;;;14.74;42.26;94956.22;5014961;28;20271;-78
2021/09/10 00:27:18;;;;;;;5.38;2.88;;;15.10;57.90;;;14.70;42.52;94950.56;5031061;28;20207;-78
2021/09/10 00:29:45;;;;;;;4.68;2.72;;;15.00;58.00;;;14.66;42.29;94951.22;5027355;28;20223;-78
2021/09/10 00:32:13;;;;;;;4.82;3.33;;;15.00;58.00;;;14.66;42.48;94964.41;5011413;28;20217;-79
2021/09/10 00:34:40;;;;;;;6.05;3.13;;;15.00;58.10;;;14.60;42.61;94955.53;5027658;28;20224;-79
2021/09/10 00:37:07;;;;;;;4.00;2.95;;;15.00;58.30;;;14.58;42.98;94958.34;5011158;28;20240;-78
2021/09/10 00:39:35;;;;;;;5.15;3.28;;;15.00;58.40;;;14.60;42.60;94960.78;5030178;28;20200;-78
2021/09/10 00:42:03;;;;;;;5.32;3.08;;;14.90;58.40;;;14.59;42.71;94956.53;5019982;28;20236;-78
2021/09/10 00:44:30;;;;;;;4.82;2.97;;;14.80;58.50;;;14.55;42.76;94961.44;5028421;28;20292;-78
2021/09/10 00:46:58;;;;;;;7.68;3.50;;;14.90;58.70;;;14.52;43.17;94966.34;5030926;28;20212;-78
2021/09/10 00:49:25;;;;;;;5.32;3.10;;;14.90;59.20;;;14.47;42.79;94969.63;5014806;28;20188;-78
2021/09/10 00:51:53;;;;;;;4.18;3.00;;;14.80;58.90;;;14.46;42.99;94969.84;5030819;28;20224;-79
2021/09/10 00:54:20;;;;;;;4.28;2.85;;;14.80;59.20;;;14.43;43.23;94964.97;4998333;28;20649;-78
2021/09/10 00:56:47;;;;;;;5.45;2.92;;;14.80;59.20;;;14.39;43.25;94960.13;5001972;28;20227;-79
2021/09/10 00:59:15;;;;;;;4.25;3.28;;;14.70;59.10;;;14.36;43.41;94963.19;5009904;28;20287;-79
2021/09/10 01:01:43;;;;;;;3.72;2.90;;;14.70;59.10;;;14.30;43.28;94964.06;5011104;28;20582;-78
2021/09/10 01:04:11;;;;;;;7.35;2.72;;;14.70;59.00;;;14.32;43.28;94969.09;5014287;28;20650;-79
2021/09/10 01:06:39;;;;;;;5.78;3.00;;;14.70;59.10;;;14.30;43.31;94968.53;4998128;28;20216;-79
2021/09/10 01:09:07;;;;;;;3.80;2.80;;;14.60;58.90;;;14.25;44.13;94967.31;5014305;28;20200;-78
2021/09/10 01:11:34;;;;;;;4.88;3.20;;;14.60;59.00;;;14.25;43.28;94969.16;5030607;28;20736;-78
2021/09/10 01:14:03;;;;;;;6.13;3.30;;;14.60;59.00;;;14.22;43.80;94966.94;5021901;28;20244;-78
2021/09/10 01:16:30;;;;;;;4.65;3.20;;;14.50;58.90;;;14.19;43.94;94962.91;5011608;28;20255;-79
2021/09/10 01:18:58;;;;;;;3.40;3.00;;;14.50;58.80;;;14.21;43.96;94973.25;4994710;28;20228;-79
2021/09/10 01:21:25;;;;;;;4.45;3.50;;;14.50;58.90;;;14.18;43.89;94966.56;5011297;28;20212;-78
2021/09/10 01:23:52;;;;;;;5.40;3.00;;;14.40;58.80;;;14.17;43.80;94969.41;5030544;28;20220;-78
2021/09/10 01:26:20;;;;;;;4.97;3.13;;;14.60;59.00;;;14.16;43.97;94968.63;5014409;28;20208;-78
2021/09/10 01:28:48;;;;;;;4.45;3.50;;;14.50;59.10;;;14.15;44.00;94959.09;5033792;28;20200;-78
2021/09/10 01:31:16;;;;;;;4.30;3.50;;;14.50;59.50;;;14.14;43.89;94957.47;5032197;28;20222;-79
2021/09/10 01:33:44;;;;;;;4.63;2.85;;;14.50;59.50;;;14.14;43.96;94961.94;5028453;28;20303;-78
2021/09/10 01:36:14;;;;;;;4.25;3.22;;;14.50;59.60;;;14.12;43.97;94969.25;5014515;28;20246;-79
2021/09/10 01:38:41;;;;;;;5.38;3.20;;;14.40;59.60;;;14.07;44.34;94962.78;5014845;28;20601;-78
2021/09/10 01:41:09;;;;;;;7.63;3.08;;;14.40;59.70;;;14.06;44.29;94965.63;5017279;28;20212;-78
2021/09/10 01:43:37;;;;;;;4.80;3.47;;;14.40;59.80;;;14.04;44.33;94965.03;5017325;28;20568;-78
2021/09/10 01:46:04;;;;;;;4.10;3.20;;;14.40;59.90;;;14.02;44.52;94973.16;5033895;28;20208;-78
2021/09/10 01:48:32;;;;;;;4.97;3.30;;;14.30;59.80;;;14.01;44.32;94970.72;5033817;28;20308;-79
2021/09/10 01:50:59;;;;;;;4.45;3.10;;;14.30;59.90;;;14.00;44.43;94974.38;4998505;28;20314;-79
2021/09/10 01:53:32;;;;;;;3.17;2.80;;;14.30;60.00;;;13.95;44.52;94967.09;5024095;28;20231;-78
2021/09/10 01:56:00;;;;;;;4.95;3.47;;;14.30;60.50;;;13.93;44.50;94967.31;5017209;28;20220;-78
2021/09/10 01:58:28;;;;;;;5.13;3.00;;;14.20;60.00;;;13.90;44.57;94975.66;5017454;28;20204;-78
2021/09/10 02:00:55;;;;;;;6.22;3.15;;;14.30;60.10;;;13.89;44.38;94981.13;5017403;28;20302;-78
2021/09/10 02:03:23;;;;;;;3.97;3.10;;;14.30;60.10;;;13.87;44.53;94977.91;5029771;28;20310;-79
2021/09/10 02:05:51;;;;;;;4.50;3.13;;;14.20;60.20;;;13.82;44.60;94969.81;5029548;28;20366;-79
2021/09/10 02:08:18;;;;;;;3.95;3.20;;;14.20;60.20;;;13.84;44.61;94980.97;5013682;28;20188;-79
2021/09/10 02:10:45;;;;;;;4.53;2.83;;;14.20;60.40;;;13.80;44.57;94975.28;5015160;28;20216;-78
2021/09/10 02:13:12;;;;;;;4.88;3.20;;;14.10;60.20;;;13.79;45.31;94972.88;5013464;28;20192;-78
2021/09/10 02:15:39;;;;;;;5.25;3.20;;;14.10;60.30;;;13.76;44.69;94971.47;4993701;28;20271;-78
2021/09/10 02:18:06;;;;;;;4.35;3.15;;;14.10;60.40;;;13.74;44.90;94966.41;5014635;28;20309;-79
2021/09/10 02:20:34;;;;;;;4.13;3.08;;;14.10;60.30;;;13.73;44.99;94963.97;5029964;28;20683;-79
2021/09/10 02:23:01;;;;;;;3.55;3.00;;;14.10;60.50;;;13.70;45.00;94967.03;5016576;28;20195;-79
2021/09/10 02:25:28;;;;;;;5.07;3.08;;;14.00;60.50;;;13.66;44.90;94968.47;5016910;28;20274;-79
2021/09/10 02:27:55;;;;;;;5.47;3.00;;;13.90;60.40;;;13.65;44.93;94967.66;5033160;28;20655;-78
2021/09/10 02:30:23;;;;;;;4.78;3.30;;;14.00;60.50;;;13.63;45.01;94967.06;5033102;28;20239;-78
2021/09/10 02:32:50;;;;;;;3.53;2.88;;;14.00;60.60;;;13.59;45.12;94960.59;5007021;28;20189;-79
2021/09/10 02:35:18;;;;;;;4.18;2.95;;;13.90;60.60;;;13.56;45.27;94964.47;5012560;28;20319;-79
2021/09/10 02:37:44;;;;;;;5.15;2.85;;;13.90;60.60;;;13.57;45.15;94965.25;5032628;28;20220;-78
2021/09/10 02:40:12;;;;;;;4.05;3.30;;;13.90;60.70;;;13.55;44.93;94962.84;5013894;28;20224;-79
2021/09/10 02:42:39;;;;;;;6.03;2.88;;;13.90;60.70;;;13.53;45.25;94966.72;5012913;28;20213;-78
2021/09/10 02:45:10;;;;;;;3.10;2.80;;;13.90;60.80;;;13.51;45.49;94963.47;5012965;28;20698;-77
2021/09/10 02:47:37;;;;;;;5.55;3.00;;;13.80;61.00;;;13.48;45.47;94972.59;4996698;28;20201;-78
2021/09/10 02:50:06;;;;;;;8.90;3.10;;;13.80;60.90;;;13.45;45.40;94962.47;5012554;28;20275;-78
2021/09/10 02:52:35;;;;;;;4.68;3.15;;;13.70;60.90;;;13.42;45.67;94966.31;5005950;28;20211;-78
2021/09/10 02:55:07;;;;;;;4.35;2.95;;;13.80;61.00;;;13.41;45.49;94971.81;5013843;28;20659;-78
2021/09/10 02:57:35;;;;;;;4.00;2.90;;;13.70;60.90;;;13.38;45.58;94967.75;5018825;28;20189;-78
2021/09/10 03:00:05;;;;;;;5.00;2.92;;;13.80;61.00;;;13.37;45.45;94967.94;5010939;28;20184;-78
2021/09/10 03:02:36;;;;;;;4.90;3.15;;;13.70;61.00;;;13.32;45.63;94965.94;5010370;28;20620;-78
2021/09/10 03:05:05;;;;;;;4.43;3.13;;;13.70;61.10;;;13.29;45.90;94961.88;5008880;28;20290;-78
2021/09/10 03:07:33;;;;;;;4.25;2.80;;;13.70;61.30;;;13.29;45.99;94968.97;5031166;28;20203;-78
2021/09/10 03:10:00;;;;;;;4.40;3.25;;;13.60;61.20;;;13.27;45.87;94963.13;5027050;28;20599;-77
2021/09/10 03:12:27;;;;;;;4.50;3.15;;;13.60;61.30;;;13.24;46.08;94961.72;5000477;28;20330;-77
2021/09/10 03:14:55;;;;;;;5.57;3.95;;;13.60;61.40;;;13.23;46.06;94964.53;5021098;28;20327;-77
2021/09/10 03:17:22;;;;;;;6.68;4.15;;;13.60;61.50;;;13.20;46.15;94957.06;5021694;28;20211;-77
2021/09/10 03:19:49;;;;;;;3.83;3.25;;;13.60;61.50;;;13.20;46.20;94955.22;5038428;28;20608;-77
2021/09/10 03:22:16;;;;;;;5.65;3.58;;;13.60;61.70;;;13.17;46.42;94958.28;5026988;28;20197;-78
2021/09/10 03:24:44;;;;;;;4.05;2.85;;;13.60;61.60;;;13.18;46.58;94953.81;5021532;28;20664;-78
2021/09/10 03:27:11;;;;;;;4.75;3.15;;;13.60;61.70;;;13.13;46.11;94951.78;5023753;28;20212;-77
2021/09/10 03:29:39;;;;;;;6.15;3.20;;;13.40;61.60;;;13.15;46.62;94959.50;5003816;28;20185;-78
2021/09/10 03:32:07;;;;;;;4.75;3.05;;;13.50;61.80;;;13.12;46.56;94953.63;5003662;28;20255;-77
2021/09/10 03:34:34;;;;;;;3.55;2.83;;;13.40;61.80;;;13.12;46.72;94960.69;5009693;28;20193;-78
2021/09/10 03:37:01;;;;;;;6.20;3.30;;;13.50;61.80;;;13.09;46.48;94961.13;5021466;28;20212;-78
2021/09/10 03:39:29;;;;;;;4.00;3.15;;;13.40;61.80;;;13.11;46.54;94959.09;5006582;28;20199;-77
2021/09/10 03:41:56;;;;;;;5.20;3.13;;;13.50;62.00;;;13.10;46.71;94960.91;5017146;28;20259;-78
2021/09/10 03:44:23;;;;;;;6.63;2.85;;;13.40;61.90;;;13.09;46.82;94961.94;5028104;28;20307;-78
2021/09/10 03:46:50;;;;;;;4.35;3.13;;;13.40;61.90;;;13.09;46.91;94961.13;4995518;28;20217;-78
2021/09/10 03:49:17;;;;;;;4.97;3.40;;;13.40;62.90;;;13.07;46.76;94963.16;5024760;28;20197;-77
2021/09/10 03:51:44;;;;;;;4.65;3.33;;;13.40;62.10;;;13.04;46.96;94961.75;4995276;28;20252;-78
2021/09/10 03:54:11;;;;;;;4.88;3.15;;;13.30;62.10;;;13.01;46.89;94962.16;5011759;28;20192;-78
2021/09/10 03:56:39;;;;;;;5.30;3.30;;;13.30;62.10;;;13.00;47.17;94957.91;5012505;28;20248;-78
2021/09/10 03:59:06;;;;;;;4.22;3.17;;;13.30;62.20;;;13.00;47.23;94955.28;4995830;28;20503;-77
2021/09/10 04:01:33;;;;;;;5.32;3.30;;;13.30;62.20;;;12.99;47.21;94951.03;4995907;28;20240;-79
2021/09/10 04:04:01;;;;;;;3.53;3.00;;;13.30;62.30;;;12.95;47.39;94948.00;5009503;28;20730;-78
2021/09/10 04:06:28;;;;;;;4.47;3.15;;;13.30;62.30;;;12.95;47.40;94953.25;5009599;28;20765;-78
2021/09/10 04:08:57;;;;;;;3.85;3.10;;;13.30;62.40;;;12.95;47.38;94947.16;5028891;28;20223;-78
2021/09/10 04:11:24;;;;;;;4.75;3.33;;;13.20;62.30;;;12.93;47.35;94954.47;5029748;28;20227;-78
2021/09/10 04:13:52;;;;;;;4.80;3.20;;;13.20;62.50;;;12.91;47.39;94951.22;5031413;28;20246;-78
2021/09/10 04:16:19;;;;;;;4.25;3.13;;;13.20;62.50;;;12.88;47.55;94952.47;5014902;28;20622;-78
2021/09/10 04:18:46;;;;;;;5.32;3.20;;;13.20;62.50;;;12.87;48.21;94955.31;5025800;28;20201;-78
2021/09/10 04:21:14;;;;;;;3.85;3.15;;;13.20;62.50;;;12.80;47.76;94956.13;5004249;28;20230;-77
2021/09/10 04:23:41;;;;;;;4.00;3.08;;;13.30;62.70;;;12.82;47.97;94955.91;5026172;28;20647;-78
2021/09/10 04:26:08;;;;;;;4.10;3.20;;;13.20;62.70;;;12.80;47.75;94964.03;5006626;28;20244;-77
2021/09/10 04:28:36;;;;;;;4.38;3.25;;;13.10;62.60;;;12.76;47.79;94959.34;5022713;28;20547;-79
2021/09/10 04:31:03;;;;;;;4.45;3.08;;;13.10;62.70;;;12.75;47.88;94960.38;5014525;28;20293;-79
2021/09/10 04:33:30;;;;;;;5.82;3.25;;;13.10;62.70;;;12.71;47.77;94962.59;5014702;28;20199;-79
2021/09/10 04:35:58;;;;;;;4.43;3.40;;;13.10;62.80;;;12.72;47.80;94969.47;5045654;28;20228;-77
2021/09/10 04:38:25;;;;;;;4.72;3.63;;;13.00;62.70;;;12.71;47.77;94962.59;4996393;28;20215;-79
2021/09/10 04:40:52;;;;;;;4.13;3.50;;;13.10;62.90;;;12.70;48.09;94962.81;5000165;28;20308;-79
2021/09/10 04:43:20;;;;;;;3.50;3.05;;;13.10;63.10;;;12.70;47.70;94968.88;5011229;28;20220;-79
2021/09/10 04:45:47;;;;;;;5.75;3.33;;;13.10;63.10;;;12.72;48.06;94968.66;5011452;28;20236;-78
2021/09/10 04:48:14;;;;;;;3.60;3.05;;;13.00;63.10;;;12.70;48.19;94971.50;5012056;28;20205;-79
2021/09/10 04:50:41;;;;;;;5.55;3.47;;;13.00;63.10;;;12.73;47.87;94968.47;5011507;28;20228;-79
2021/09/10 04:53:09;;;;;;;4.78;3.70;;;13.00;63.20;;;12.76;48.32;94975.94;5002794;28;20296;-77
2021/09/10 04:55:36;;;;;;;7.22;4.20;;;13.00;63.40;;;12.76;48.16;94972.53;5027506;28;20208;-79
2021/09/10 04:58:04;;;;;;;5.60;3.35;;;13.10;63.40;;;12.76;48.32;94983.03;5015318;28;20203;-78
2021/09/10 05:00:31;;;;;;;6.45;3.13;;;13.00;63.40;;;12.78;48.33;94976.56;5010871;28;20294;-78
2021/09/10 05:02:59;;;;;;;3.67;3.08;;;13.10;63.40;;;12.78;48.17;94973.94;5015240;28;20650;-78
2021/09/10 05:05:27;;;;;;;4.38;3.67;;;13.00;63.30;;;12.79;48.26;94983.44;4999986;28;20287;-78
2021/09/10 05:07:54;;;;;;;4.25;3.15;;;13.00;63.30;;;12.81;48.48;94976.13;5026197;28;20193;-77
2021/09/10 05:10:22;;;;;;;5.28;3.22;;;13.10;63.50;;;12.83;48.36;94981.22;5008635;28;20216;-77
2021/09/10 05:12:49;;;;;;;6.55;3.40;;;13.00;63.50;;;12.85;48.41;94975.75;5031580;28;20219;-78
2021/09/10 05:15:16;;;;;;;4.45;3.13;;;13.10;63.60;;;12.87;48.38;94981.63;5006555;28;20220;-78
2021/09/10 05:17:43;;;;;;;3.78;3.38;;;13.10;63.70;;;12.89;48.60;94975.13;5024331;28;20613;-78
2021/09/10 05:20:11;;;;;;;4.80;3.33;;;13.10;63.80;;;12.97;48.58;94979.38;5007316;28;20679;-78
2021/09/10 05:22:39;;;;;;;5.18;3.80;;;13.10;63.90;;;13.03;48.68;94981.19;5020249;28;20254;-78
2021/09/10 05:25:07;;;;;;;5.80;3.58;;;13.20;64.00;;;13.10;49.02;94979.34;5007617;28;20725;-78
2021/09/10 05:27:35;;;;;;;4.13;3.33;;;13.20;64.10;;;13.17;48.64;94981.97;4992420;28;20275;-78
2021/09/10 05:30:03;;;;;;;5.35;3.60;;;13.20;64.00;;;13.23;48.72;94981.16;5014923;28;20223;-79
2021/09/10 05:32:30;;;;;;;5.55;3.17;;;13.30;64.10;;;13.29;48.52;94985.59;5025418;28;20217;-78
2021/09/10 05:34:57;;;;;;;5.88;3.65;;;13.40;64.30;;;13.39;48.61;94987.81;5026068;28;20223;-77
2021/09/10 05:37:25;;;;;;;6.32;3.47;;;13.40;64.30;;;13.46;48.79;94979.88;4991124;28;20193;-78
2021/09/10 05:39:52;;;;;;;4.32;3.00;;;13.50;64.40;;;13.59;48.71;94987.75;5025341;28;20198;-78
2021/09/10 05:42:21;;;;;;;5.78;3.15;;;13.60;64.60;;;13.66;48.75;94990.38;5016027;28;20204;-78
2021/09/10 05:44:48;;;;;;;5.43;3.72;;;13.60;64.70;;;13.77;48.81;94997.63;5031778;28;20197;-78
2021/09/10 05:47:15;;;;;;;5.63;3.40;;;13.70;64.80;;;13.86;48.81;94998.19;5023861;28;20224;-77
2021/09/10 05:49:42;;;;;;;5.22;3.33;;;13.80;64.80;;;14.00;49.30;95003.38;5016484;28;20281;-78
2021/09/10 05:52:10;;;;;;;7.65;3.83;;;13.80;64.80;;;14.11;48.94;95007.19;5001486;28;20223;-77
2021/09/10 05:54:38;;;;;;;5.50;3.70;;;13.90;64.90;;;14.21;48.75;95010.19;5024089;28;20197;-78
2021/09/10 05:57:05;;;;;;;4.75;3.63;;;14.00;65.10;;;14.31;48.97;95005.25;5020977;28;20296;-76
2021/09/10 05:59:33;;;;;;;5.65;3.47;;;14.10;65.00;;;14.39;48.96;95005.00;5022408;28;20289;-78
2021/09/10 06:02:06;;;;;;;6.43;4.50;;;14.30;65.10;;;14.50;48.99;95008.78;5025238;28;20215;-78
2021/09/10 06:04:34;;;;;;;7.28;4.20;;;14.30;65.00;;;14.59;49.00;95006.69;5005063;28;20219;-77
2021/09/10 06:07:02;;;;;;;7.20;4.05;;;14.40;65.10;;;14.68;48.92;95002.81;5006776;28;20216;-77
2021/09/10 06:09:29;;;;;;;6.80;4.35;;;14.50;65.10;;;14.79;49.00;95008.41;5008277;28;20192;-78
2021/09/10 06:11:57;;;;;;;6.65;4.10;;;14.60;65.10;;;14.89;49.00;95009.53;4997373;28;20279;-78
2021/09/10 06:14:24;;;;;;;6.82;4.57;;;14.70;65.20;;;14.98;48.99;95004.78;5014439;28;20245;-78
2021/09/10 06:16:52;;;;;;;7.18;4.30;;;14.80;65.20;;;15.09;48.92;95011.19;4999675;28;20220;-78
2021/09/10 06:19:19;;;;;;;5.63;4.32;;;14.80;65.30;;;15.20;49.25;95001.75;5011491;28;20242;-78
2021/09/10 06:21:46;;;;;;;5.90;4.03;;;15.00;65.30;;;15.30;49.20;94996.75;5024569;28;20209;-78
2021/09/10 06:24:13;;;;;;;6.38;4.03;;;15.00;65.30;;;15.40;48.93;95004.16;5023853;28;20605;-79
2021/09/10 06:26:40;;;;;;;5.95;4.40;;;15.10;65.30;;;15.51;49.00;94997.34;5021200;28;20240;-78
2021/09/10 06:29:07;;;;;;;6.65;4.32;;;15.20;65.20;;;15.61;49.00;94999.47;4990325;28;20192;-79
2021/09/10 06:31:35;;;;;;;6.88;3.90;;;15.30;65.20;;;15.68;48.64;95002.84;5021477;28;20235;-79
2021/09/10 06:34:02;;;;;;;5.10;3.83;;;15.40;65.30;;;15.77;49.01;95004.16;5022739;28;20193;-79
2021/09/10 06:36:29;;;;;;;6.85;4.55;;;15.50;65.30;;;15.88;48.91;94996.53;5004540;28;20645;-78
2021/09/10 06:38:57;;;;;;;7.72;4.40;;;15.60;65.30;;;15.97;49.13;95011.88;5006742;28;20232;-77
2021/09/10 06:41:24;;;;;;;7.00;4.03;;;15.70;65.30;;;16.07;48.59;95014.00;5038420;28;20298;-78
2021/09/10 06:43:52;;;;;;;5.55;3.92;;;15.90;65.40;;;16.16;48.75;95011.84;5023529;28;20621;-78
2021/09/10 06:46:19;;;;;;;5.47;3.67;;;15.90;65.30;;;16.26;48.46;95025.34;5018723;28;20244;-78
2021/09/10 06:48:48;;;;;;;6.28;4.25;;;15.90;65.20;;;16.35;48.66;95025.84;5022069;28;20192;-77
2021/09/10 06:51:15;;;;;;;5.32;3.90;;;16.10;66.20;;;16.47;48.62;95023.22;5039582;28;20252;-78
2021/09/10 06:53:42;;;;;;;5.25;3.80;;;16.20;65.30;;;16.57;48.52;95028.78;5021682;28;20221;-79
2021/09/10 06:56:10;;;;;;;4.72;4.22;;;16.20;65.20;;;16.65;48.46;95022.38;5037690;28;20250;-79
2021/09/10 06:58:38;;;;;;;6.78;3.85;;;16.30;65.00;;;16.74;48.43;95023.63;5022591;28;20196;-78
2021/09/10 07:01:06;;;;;;;4.38;3.78;;;16.40;65.20;;;16.84;48.35;95023.06;4994976;28;20253;-78
2021/09/10 07:03:34;;;;;;;6.82;4.25;;;16.50;65.10;;;16.95;48.45;95024.16;5010386;28;20188;-78
2021/09/10 07:06:02;;;;;;;6.60;4.15;;;16.60;65.00;;;17.02;48.18;95027.50;5018921;28;20213;-78
2021/09/10 07:08:32;;;;;;;6.32;4.22;;;16.70;64.90;;;17.12;48.16;95026.94;5021394;28;20196;-79
2021/09/10 07:11:03;;;;;;;5.65;4.10;;;16.70;64.90;;;17.20;48.35;95034.56;5016310;28;20304;-78
2021/09/10 07:13:31;;;;;;;5.78;4.32;;;16.90;65.00;;;17.25;48.02;95024.06;5020397;28;20290;-79
2021/09/10 07:16:02;;;;;;;4.60;3.42;;;16.90;64.80;;;17.39;48.21;95026.47;5005189;28;20682;-78
2021/09/10 07:18:30;;;;;;;4.18;3.55;;;17.00;64.80;;;17.49;48.07;95029.38;5021813;28;20196;-78
2021/09/10 07:20:59;;;;;;;4.85;3.70;;;17.10;64.70;;;17.59;48.02;95034.06;5003723;28;20216;-79
2021/09/10 07:23:27;;;;;;;4.80;3.58;;;17.20;64.70;;;17.68;47.25;95037.16;5010774;28;20196;-78
2021/09/10 07:25:56;;;;;;;8.02;3.92;;;17.30;64.70;;;17.78;47.85;95034.72;5013560;28;20231;-80
2021/09/10 07:28:24;;;;;;;5.57;3.50;;;17.30;64.60;;;17.88;47.62;95047.38;5006425;28;20246;-79
2021/09/10 07:30:51;;;;;;;5.82;3.80;;;17.40;64.60;;;17.98;47.85;95044.16;5019435;28;20234;-80
2021/09/10 07:33:18;;;;;;;4.18;3.20;;;17.60;64.80;;;18.06;47.43;95044.59;5047170;28;20639;-80
2021/09/10 07:35:45;;;;;;;5.22;3.70;;;17.60;64.70;;;18.17;47.24;95045.59;5012523;28;20216;-80
2021/09/10 07:38:13;;;;;;;8.35;4.40;;;17.70;64.80;;;18.27;47.90;95042.34;5029729;28;20247;-79
2021/09/10 07:40:40;;;;;;;5.72;3.85;;;17.80;64.80;;;18.41;47.38;95042.88;5030097;28;20208;-77
2021/09/10 07:43:07;;;;;;;5.40;3.55;;;17.90;65.90;;;18.54;47.53;95050.56;4996286;28;20240;-76
2021/09/10 07:45:34;;;;;;;6.30;3.58;;;18.00;64.80;;;18.64;47.31;95049.91;5020385;28;20303;-76
2021/09/10 07:48:02;;;;;;;5.80;3.95;;;18.10;64.60;;;18.76;47.15;95043.72;4997277;28;20204;-79
2021/09/10 07:50:30;;;;;;;5.32;3.85;;;18.20;64.60;;;18.86;47.25;95050.03;5004732;28;20299;-79
2021/09/10 07:52:57;;;;;;;5.40;4.05;;;18.40;64.70;;;18.95;47.27;95033.72;5033703;28;20299;-79
2021/09/10 07:55:24;;;;;;;6.60;4.20;;;18.50;64.60;;;19.07;47.04;95045.06;5012596;28;20212;-78
2021/09/10 07:57:52;;;;;;;6.85;3.92;;;18.60;64.50;;;19.18;47.20;95046.03;5029269;28;20311;-78
2021/09/10 08:00:21;;;;;;;5.63;3.63;;;18.60;64.50;;;19.29;46.93;95037.16;5001322;28;20298;-79
2021/09/10 08:02:49;;;;;;;4.53;3.63;;;18.80;64.50;;;19.42;46.96;95051.97;4993018;28;20213;-79
2021/09/10 08:05:17;;;;;;;5.25;3.92;;;18.90;64.60;;;19.52;46.83;95044.13;5008926;28;20627;-79
2021/09/10 08:07:45;;;;;;;4.65;4.00;;;19.00;64.50;;;19.60;46.50;95039.44;5009452;28;20193;-79
2021/09/10 08:10:16;;;;;;;12.48;4.50;;;19.00;64.20;;;19.71;46.70;95041.19;4992841;28;20217;-80
2021/09/10 08:12:45;;;;;;;7.13;4.05;;;19.20;64.30;;;19.82;46.66;95037.63;4994983;28;20267;-77
2021/09/10 08:15:15;;;;;;;5.85;3.67;;;19.30;64.30;;;19.91;46.93;95034.53;5011049;28;20295;-79
2021/09/10 08:17:43;;;;;;;5.30;3.63;;;19.40;64.40;;;20.07;46.28;95038.22;5011265;28;20230;-79
2021/09/10 08:20:12;;;;;;;7.55;4.28;;;19.50;64.40;;;20.23;46.21;95044.53;5011081;28;20251;-79
2021/09/10 08:22:41;;;;;;;6.50;3.63;;;19.60;64.40;;;20.37;46.04;95039.59;4994948;28;20208;-79
2021/09/10 08:25:10;;;;;;;4.28;3.85;;;19.70;64.20;;;20.53;46.16;95043.22;5009332;28;20311;-77
2021/09/10 08:27:37;;;;;;;5.65;3.95;;;19.80;64.00;;;20.64;46.09;95037.75;5011070;28;20701;-77
2021/09/10 08:30:07;;;;;;;6.03;4.25;;;19.90;63.90;;;20.79;45.62;95047.78;5010595;28;20208;-77
2021/09/10 08:32:34;;;;;;;4.93;3.83;;;20.10;63.80;;;20.92;45.82;95038.56;5011069;28;20686;-79
2021/09/10 08:35:02;;;;;;;5.40;3.45;;;20.20;63.60;;;21.06;45.67;95038.13;4994098;28;20193;-79
2021/09/10 08:37:29;;;;;;;33.83;5.30;;;20.30;63.70;;;21.14;45.51;95021.66;5012323;28;20270;-79
2021/09/10 08:39:57;;;;;;;5.78;3.65;;;20.40;64.70;;;21.31;45.23;95036.72;4997384;28;20308;-77
2021/09/10 08:42:24;;;;;;;4.82;3.60;;;20.60;64.00;;;21.41;45.18;95034.91;4997249;28;20197;-77
2021/09/10 08:44:52;;;;;;;6.10;3.80;;;20.70;64.00;;;21.51;45.14;95038.72;5013215;28;20638;-80
2021/09/10 08:47:20;;;;;;;5.05;3.70;;;20.80;63.80;;;21.63;45.06;95039.34;5014842;28;20221;-80
2021/09/10 08:49:48;;;;;;;6.60;3.40;;;21.00;63.90;;;21.74;44.86;95032.19;5003605;28;20267;-77
2021/09/10 08:52:16;;;;;;;5.40;3.80;;;21.00;63.40;;;21.83;45.21;95032.50;4980153;28;20225;-77
2021/09/10 08:54:43;;;;;;;4.78;3.75;;;21.10;63.40;;;21.93;44.66;95040.53;5013103;28;20590;-78
2021/09/10 08:57:11;;;;;;;7.80;3.63;;;21.20;63.20;;;22.00;44.61;95026.97;5014476;28;20698;-77
2021/09/10 08:59:38;;;;;;;4.65;3.55;;;21.40;63.20;;;22.06;44.50;95029.38;4998213;28;20198;-80
2021/09/10 09:02:05;;;;;;;4.57;3.72;;;21.40;63.10;;;22.15;44.39;95026.22;4996661;28;20290;-80
2021/09/10 09:04:37;;;;;;;6.93;3.60;;;21.50;62.90;;;22.26;44.28;95033.19;5029430;28;20202;-80
2021/09/10 09:07:08;;;;;;;5.22;3.33;;;21.60;62.90;;;22.37;44.20;95029.50;4997630;28;20232;-77
2021/09/10 09:09:45;;;;;;;5.25;3.83;;;21.70;63.60;;;22.47;44.49;95022.59;5030387;28;20232;-80
2021/09/10 09:12:27;;;;;;;5.97;3.63;;;21.80;63.00;;;22.57;43.93;95025.28;5027395;28;20569;-77
2021/09/10 09:15:00;;;;;;;5.28;3.40;;;21.90;62.50;;;22.69;43.80;95025.84;5028543;28;20662;-76
2021/09/10 09:17:40;;;;;;;7.28;4.00;;;21.90;62.60;;;22.78;43.76;95017.28;5017675;28;20213;-80
2021/09/10 09:20:26;;;;;;;8.40;3.65;;;22.10;62.30;;;22.89;43.79;95020.75;5021451;28;20203;-77
2021/09/10 09:23:01;;;;;;;5.80;3.55;;;22.20;62.50;;;23.02;43.41;95020.22;5014555;28;20208;-78
2021/09/10 09:25:33;;;;;;;3.85;3.28;;;22.30;62.50;;;23.13;43.24;95016.50;5011818;28;20222;-77
2021/09/10 09:28:25;;;;;;;5.15;3.40;;;22.40;62.10;;;23.23;43.03;95023.72;5033515;28;20209;-78
2021/09/10 09:31:04;;;;;;;8.07;3.88;;;22.50;62.10;;;23.36;43.18;95021.56;5017842;28;20295;-78
2021/09/10 09:33:35;;;;;;;5.95;3.45;;;22.60;62.20;;;23.49;43.18;95026.38;5032348;28;20226;-79
2021/09/10 09:36:06;;;;;;;4.90;3.40;;;22.70;62.10;;;23.61;43.14;95020.72;5033981;28;20716;-78
2021/09/10 09:38:36;;;;;;;5.50;3.30;;;22.80;62.10;;;23.75;42.76;95023.63;5034184;28;20196;-78
2021/09/10 09:41:10;;;;;;;4.32;3.17;;;22.90;62.00;;;23.86;42.59;95011.78;5033826;28;20233;-79
2021/09/10 09:43:44;;;;;;;4.78;3.22;;;23.00;61.80;;;23.98;42.35;95009.63;5015633;28;20184;-79
2021/09/10 09:46:15;;;;;;;4.22;3.22;;;23.20;61.60;;;24.07;42.23;95012.56;5033426;28;20236;-78
2021/09/10 09:48:46;;;;;;;5.40;3.53;;;23.30;61.40;;;24.16;42.15;95020.81;5016249;28;20199;-78
2021/09/10 09:51:15;;;;;;;4.90;3.25;;;23.40;61.60;;;24.25;41.90;95016.47;5019833;28;20244;-78
2021/09/10 09:53:44;;;;;;;5.28;3.25;;;23.50;61.20;;;24.33;41.85;95020.47;4999765;28;20213;-78
2021/09/10 09:56:12;;;;;;;5.10;3.28;;;23.50;61.20;;;24.42;41.90;95018.78;5011928;28;20227;-78
2021/09/10 09:58:42;;;;;;;4.55;3.53;;;23.70;61.40;;;24.52;41.95;95014.47;5028011;28;20200;-78
2021/09/10 10:01:10;;;;;;;3.65;3.25;;;23.70;61.30;;;24.60;41.71;95017.34;5022872;28;20225;-79
2021/09/10 10:03:40;;;;;;;3.95;3.47;;;23.80;61.20;;;24.68;41.67;95013.31;5005014;28;20591;-79
2021/09/10 10:06:24;;;;;;;3.80;3.40;;;23.90;61.00;;;24.77;42.25;95025.06;5005997;28;20263;-78
2021/09/10 10:09:07;;;;;;;4.53;3.40;;;24.00;62.20;;;24.83;41.94;95012.41;5007253;28;20202;-78
2021/09/10 10:11:45;;;;;;;5.28;3.65;;;24.10;61.30;;;24.93;41.73;95017.69;5008812;28;20227;-79
2021/09/10 10:14:15;;;;;;;4.78;3.80;;;24.20;60.90;;;25.04;41.50;95010.34;5015407;28;20260;-79
2021/09/10 10:16:48;;;;;;;22.25;4.75;;;24.30;60.90;;;25.13;41.44;95007.88;5010916;28;20224;-79
2021/09/10 10:19:24;;;;;;;4.20;3.60;;;24.30;61.00;;;25.22;41.45;95006.19;5028486;28;20187;-79
2021/09/10 10:21:59;;;;;;;6.05;3.40;;;24.50;60.90;;;25.31;41.20;95011.72;5011998;28;20216;-79
2021/09/10 10:24:51;;;;;;;4.50;3.50;;;24.50;60.70;;;25.40;41.15;95011.94;5012984;28;20201;-79